createdAt,value
2022-12-29T00:00:35.288Z,11.62
2022-12-29T00:01:25.157Z,11.63
2022-12-29T00:02:15.211Z,11.63
2022-12-29T00:03:05.275Z,11.64
2022-12-29T00:03:55.270Z,11.66
2022-12-29T00:04:45.119Z,11.67
2022-12-29T00:05:35.119Z,11.69
2022-12-29T00:06:25.097Z,11.67
2022-12-29T00:07:15.095Z,11.66
2022-12-29T00:08:05.095Z,11.64
2022-12-29T00:08:55.118Z,11.63
2022-12-29T00:09:45.071Z,11.62
2022-12-29T00:10:35.060Z,11.51
2022-12-29T00:11:25.043Z,11.53
2022-12-29T00:12:15.045Z,11.57
2022-12-29T00:13:05.043Z,11.60
2022-12-29T00:13:55.042Z,11.60
2022-12-29T00:14:45.011Z,11.64
2022-12-29T00:15:35.092Z,11.77
2022-12-29T00:16:25.016Z,11.78
2022-12-29T00:17:14.982Z,11.77
2022-12-29T00:18:04.985Z,11.75
2022-12-29T00:18:54.982Z,11.75
2022-12-29T00:19:44.957Z,11.75
2022-12-29T00:20:34.944Z,11.78
2022-12-29T00:21:24.931Z,11.79
2022-12-29T00:22:14.924Z,11.81
2022-12-29T00:23:04.914Z,11.77
2022-12-29T00:23:54.921Z,11.74
2022-12-29T00:24:44.892Z,11.74
2022-12-29T00:25:34.889Z,11.81
2022-12-29T00:26:24.884Z,11.81
2022-12-29T00:27:14.869Z,11.78
2022-12-29T00:28:07.649Z,11.77
2022-12-29T00:28:54.875Z,11.78
2022-12-29T00:29:44.833Z,11.77
2022-12-29T00:30:34.835Z,11.79
2022-12-29T00:31:24.853Z,11.81
2022-12-29T00:32:14.820Z,11.81
2022-12-29T00:33:04.810Z,11.82
2022-12-29T00:33:54.814Z,11.88
2022-12-29T00:34:44.783Z,12.00
2022-12-29T00:35:34.779Z,12.05
2022-12-29T00:36:24.770Z,12.13
2022-12-29T00:37:14.756Z,12.15
2022-12-29T00:38:04.759Z,12.13
2022-12-29T00:38:54.755Z,12.08
2022-12-29T00:39:44.723Z,12.03
2022-12-29T00:40:34.726Z,11.98
2022-12-29T00:41:24.699Z,11.96
2022-12-29T00:42:14.701Z,11.94
2022-12-29T00:43:04.704Z,11.96
2022-12-29T00:43:54.697Z,11.94
2022-12-29T00:44:44.658Z,11.94
2022-12-29T00:45:34.661Z,11.94
2022-12-29T00:46:26.407Z,11.96
2022-12-29T00:47:14.719Z,11.90
2022-12-29T00:48:04.643Z,11.87
2022-12-29T00:48:54.651Z,11.87
2022-12-29T00:49:44.616Z,11.90
2022-12-29T00:50:34.613Z,12.00
2022-12-29T00:51:24.598Z,12.05
2022-12-29T00:52:14.615Z,12.07
2022-12-29T00:53:04.584Z,12.05
2022-12-29T00:53:54.588Z,12.04
2022-12-29T00:54:44.556Z,12.05
2022-12-29T00:55:34.548Z,12.07
2022-12-29T00:56:24.552Z,12.12
2022-12-29T00:57:14.544Z,12.11
2022-12-29T00:58:04.534Z,12.13
2022-12-29T00:58:54.548Z,12.13
2022-12-29T00:59:44.529Z,12.08
2022-12-29T01:00:34.536Z,12.07
2022-12-29T01:01:24.541Z,12.05
2022-12-29T01:02:14.570Z,12.04
2022-12-29T01:03:04.589Z,12.05
2022-12-29T01:03:57.429Z,12.01
2022-12-29T01:04:45.461Z,12.01
2022-12-29T01:05:34.436Z,12.00
2022-12-29T01:06:24.428Z,12.03
2022-12-29T01:07:14.430Z,12.03
2022-12-29T01:08:04.411Z,12.01
2022-12-29T01:08:54.423Z,12.01
2022-12-29T01:09:44.387Z,12.01
2022-12-29T01:10:34.393Z,12.01
2022-12-29T01:11:24.366Z,12.01
2022-12-29T01:12:14.433Z,11.96
2022-12-29T01:13:04.349Z,11.98
2022-12-29T01:13:54.399Z,12.03
2022-12-29T01:14:44.344Z,12.04
2022-12-29T01:15:34.328Z,12.15
2022-12-29T01:16:24.337Z,12.18
2022-12-29T01:17:14.311Z,12.23
2022-12-29T01:18:04.292Z,12.25
2022-12-29T01:18:54.297Z,12.26
2022-12-29T01:19:44.275Z,12.26
2022-12-29T01:20:34.295Z,12.21
2022-12-29T01:21:24.256Z,12.16
2022-12-29T01:22:14.261Z,12.18
2022-12-29T01:23:04.238Z,12.18
2022-12-29T01:23:54.244Z,12.16
2022-12-29T01:24:44.225Z,12.13
2022-12-29T01:25:34.214Z,12.11
2022-12-29T01:26:24.209Z,12.08
2022-12-29T01:27:14.197Z,12.05
2022-12-29T01:28:04.176Z,12.04
2022-12-29T01:28:54.199Z,12.04
2022-12-29T01:29:44.164Z,12.05
2022-12-29T01:30:34.161Z,12.08
2022-12-29T01:31:24.159Z,12.01
2022-12-29T01:32:14.143Z,11.98
2022-12-29T01:33:04.132Z,12.00
2022-12-29T01:33:54.141Z,12.04
2022-12-29T01:34:44.106Z,12.03
2022-12-29T01:35:34.095Z,12.01
2022-12-29T01:36:24.083Z,11.97
2022-12-29T01:37:14.084Z,11.90
2022-12-29T01:38:04.076Z,11.87
2022-12-29T01:38:54.076Z,11.93
2022-12-29T01:39:44.065Z,11.98
2022-12-29T01:40:34.044Z,12.07
2022-12-29T01:41:24.036Z,12.19
2022-12-29T01:42:14.034Z,12.23
2022-12-29T01:43:04.021Z,12.26
2022-12-29T01:43:54.023Z,12.26
2022-12-29T01:44:43.998Z,12.21
2022-12-29T01:45:34.064Z,12.23
2022-12-29T01:46:24.069Z,12.29
2022-12-29T01:47:13.989Z,12.26
2022-12-29T01:48:03.968Z,12.25
2022-12-29T01:48:53.963Z,12.30
2022-12-29T01:49:43.935Z,12.30
2022-12-29T01:50:33.934Z,12.23
2022-12-29T01:51:23.925Z,12.19
2022-12-29T01:52:13.914Z,12.13
2022-12-29T01:53:03.915Z,12.11
2022-12-29T01:53:53.904Z,12.07
2022-12-29T01:54:43.886Z,12.03
2022-12-29T01:55:33.886Z,12.04
2022-12-29T01:56:23.862Z,12.05
2022-12-29T01:57:13.856Z,12.04
2022-12-29T01:58:03.847Z,12.00
2022-12-29T01:58:53.852Z,11.97
2022-12-29T01:59:43.822Z,11.94
2022-12-29T02:00:33.843Z,11.94
2022-12-29T02:01:23.930Z,12.07
2022-12-29T02:02:13.851Z,12.12
2022-12-29T02:03:03.836Z,12.12
2022-12-29T02:03:53.796Z,12.04
2022-12-29T02:04:43.771Z,12.00
2022-12-29T02:05:33.766Z,11.90
2022-12-29T02:06:23.744Z,11.84
2022-12-29T02:07:13.741Z,11.87
2022-12-29T02:08:03.733Z,11.96
2022-12-29T02:08:53.756Z,12.00
2022-12-29T02:09:43.715Z,12.03
2022-12-29T02:10:33.835Z,12.01
2022-12-29T02:11:23.696Z,12.00
2022-12-29T02:12:13.680Z,11.97
2022-12-29T02:13:03.674Z,11.94
2022-12-29T02:13:53.681Z,11.98
2022-12-29T02:14:43.653Z,12.03
2022-12-29T02:15:33.651Z,11.98
2022-12-29T02:16:23.674Z,11.98
2022-12-29T02:17:13.635Z,11.93
2022-12-29T02:18:03.628Z,11.97
2022-12-29T02:18:53.633Z,11.97
2022-12-29T02:19:43.597Z,11.96
2022-12-29T02:20:33.601Z,11.93
2022-12-29T02:21:23.579Z,11.88
2022-12-29T02:22:13.580Z,11.96
2022-12-29T02:23:03.559Z,12.00
2022-12-29T02:23:53.571Z,12.03
2022-12-29T02:24:43.542Z,12.04
2022-12-29T02:25:33.527Z,12.05
2022-12-29T02:26:23.521Z,12.03
2022-12-29T02:27:13.516Z,11.94
2022-12-29T02:28:03.499Z,11.84
2022-12-29T02:28:53.509Z,11.84
2022-12-29T02:29:43.491Z,11.88
2022-12-29T02:30:33.479Z,11.84
2022-12-29T02:31:23.528Z,11.87
2022-12-29T02:32:13.500Z,11.85
2022-12-29T02:33:03.461Z,11.85
2022-12-29T02:33:53.460Z,11.84
2022-12-29T02:34:43.433Z,11.82
2022-12-29T02:35:33.417Z,11.82
2022-12-29T02:36:23.409Z,11.81
2022-12-29T02:37:13.399Z,11.75
2022-12-29T02:38:03.388Z,11.75
2022-12-29T02:38:53.394Z,11.69
2022-12-29T02:39:43.384Z,11.67
2022-12-29T02:40:33.362Z,11.63
2022-12-29T02:41:23.361Z,11.66
2022-12-29T02:42:13.347Z,11.69
2022-12-29T02:43:03.354Z,11.72
2022-12-29T02:43:53.347Z,11.74
2022-12-29T02:44:43.331Z,11.78
2022-12-29T02:45:33.418Z,11.84
2022-12-29T02:46:23.366Z,11.88
2022-12-29T02:47:13.289Z,11.87
2022-12-29T02:48:03.289Z,11.88
2022-12-29T02:48:53.278Z,11.90
2022-12-29T02:49:43.255Z,11.90
2022-12-29T02:50:33.263Z,11.93
2022-12-29T02:51:23.246Z,11.90
2022-12-29T02:52:13.225Z,11.87
2022-12-29T02:53:03.223Z,11.87
2022-12-29T02:53:53.233Z,11.87
2022-12-29T02:54:43.236Z,11.82
2022-12-29T02:55:33.193Z,11.85
2022-12-29T02:56:23.216Z,11.81
2022-12-29T02:57:13.182Z,11.82
2022-12-29T02:58:03.166Z,11.82
2022-12-29T02:58:53.176Z,11.84
2022-12-29T02:59:43.172Z,11.81
2022-12-29T03:00:33.135Z,11.79
2022-12-29T03:01:23.302Z,11.78
2022-12-29T03:02:13.219Z,11.77
2022-12-29T03:03:03.253Z,11.72
2022-12-29T03:03:53.113Z,11.79
2022-12-29T03:04:43.089Z,11.78
2022-12-29T03:05:33.071Z,11.79
2022-12-29T03:06:23.080Z,11.77
2022-12-29T03:07:13.068Z,11.72
2022-12-29T03:08:03.061Z,11.66
2022-12-29T03:08:53.052Z,11.66
2022-12-29T03:09:43.046Z,11.67
2022-12-29T03:10:33.025Z,11.78
2022-12-29T03:11:23.018Z,11.78
2022-12-29T03:12:13.010Z,11.75
2022-12-29T03:13:03.002Z,11.74
2022-12-29T03:13:52.993Z,11.75
2022-12-29T03:14:42.987Z,11.75
2022-12-29T03:15:32.973Z,11.75
2022-12-29T03:16:23.024Z,11.75
2022-12-29T03:17:13.127Z,11.75
2022-12-29T03:18:02.944Z,11.77
2022-12-29T03:18:52.946Z,11.79
2022-12-29T03:19:42.925Z,11.81
2022-12-29T03:20:32.907Z,11.81
2022-12-29T03:21:22.900Z,11.79
2022-12-29T03:22:12.896Z,11.79
2022-12-29T03:23:02.895Z,11.75
2022-12-29T03:23:52.893Z,11.69
2022-12-29T03:24:42.868Z,11.66
2022-12-29T03:25:32.853Z,11.66
2022-12-29T03:26:22.850Z,11.66
2022-12-29T03:27:12.836Z,11.64
2022-12-29T03:28:02.835Z,11.60
2022-12-29T03:28:52.847Z,11.54
2022-12-29T03:29:42.821Z,11.46
2022-12-29T03:30:32.836Z,11.44
2022-12-29T03:31:22.826Z,11.44
2022-12-29T03:32:12.778Z,11.46
2022-12-29T03:33:02.784Z,11.48
2022-12-29T03:33:52.772Z,11.46
2022-12-29T03:34:42.763Z,11.42
2022-12-29T03:35:32.741Z,11.41
2022-12-29T03:36:22.729Z,11.41
2022-12-29T03:37:12.730Z,11.44
2022-12-29T03:38:02.711Z,11.51
2022-12-29T03:38:52.718Z,11.56
2022-12-29T03:39:42.711Z,11.51
2022-12-29T03:40:32.689Z,11.49
2022-12-29T03:41:22.731Z,11.46
2022-12-29T03:42:12.767Z,11.45
2022-12-29T03:43:02.694Z,11.41
2022-12-29T03:43:52.660Z,11.36
2022-12-29T03:44:42.641Z,11.33
2022-12-29T03:45:32.630Z,11.31
2022-12-29T03:46:22.686Z,11.31
2022-12-29T03:47:12.638Z,11.26
2022-12-29T03:48:02.618Z,11.26
2022-12-29T03:48:52.601Z,11.27
2022-12-29T03:49:42.594Z,11.28
2022-12-29T03:50:32.594Z,11.26
2022-12-29T03:51:22.559Z,11.27
2022-12-29T03:52:12.561Z,11.35
2022-12-29T03:53:02.553Z,11.42
2022-12-29T03:53:52.553Z,11.44
2022-12-29T03:54:42.528Z,11.42
2022-12-29T03:55:32.520Z,11.39
2022-12-29T03:56:22.509Z,11.41
2022-12-29T03:57:12.499Z,11.42
2022-12-29T03:58:02.495Z,11.45
2022-12-29T03:58:52.522Z,11.44
2022-12-29T03:59:42.475Z,11.45
2022-12-29T04:00:32.469Z,11.44
2022-12-29T04:01:22.559Z,11.42
2022-12-29T04:02:12.765Z,11.38
2022-12-29T04:03:02.588Z,11.28
2022-12-29T04:03:52.514Z,11.31
2022-12-29T04:04:42.436Z,11.36
2022-12-29T04:05:32.399Z,11.42
2022-12-29T04:06:22.397Z,11.45
2022-12-29T04:07:12.387Z,11.46
2022-12-29T04:08:02.381Z,11.46
2022-12-29T04:08:52.389Z,11.46
2022-12-29T04:09:42.363Z,11.44
2022-12-29T04:10:32.367Z,11.45
2022-12-29T04:11:22.337Z,11.42
2022-12-29T04:12:12.327Z,11.42
2022-12-29T04:13:02.318Z,11.42
2022-12-29T04:13:52.336Z,11.44
2022-12-29T04:14:42.308Z,11.42
2022-12-29T04:15:32.323Z,11.39
2022-12-29T04:16:22.329Z,11.36
2022-12-29T04:17:12.284Z,11.42
2022-12-29T04:18:02.274Z,11.45
2022-12-29T04:18:52.272Z,11.45
2022-12-29T04:19:42.250Z,11.45
2022-12-29T04:20:32.237Z,11.42
2022-12-29T04:21:22.227Z,11.42
2022-12-29T04:22:12.216Z,11.39
2022-12-29T04:23:02.229Z,11.38
2022-12-29T04:23:52.206Z,11.38
2022-12-29T04:24:42.203Z,11.39
2022-12-29T04:25:32.175Z,11.36
2022-12-29T04:26:22.180Z,11.36
2022-12-29T04:27:12.163Z,11.39
2022-12-29T04:28:02.157Z,11.38
2022-12-29T04:28:52.156Z,11.39
2022-12-29T04:29:42.156Z,11.41
2022-12-29T04:30:32.128Z,11.41
2022-12-29T04:31:22.149Z,11.41
2022-12-29T04:32:12.105Z,11.39
2022-12-29T04:33:02.104Z,11.38
2022-12-29T04:33:52.099Z,11.41
2022-12-29T04:34:42.077Z,11.41
2022-12-29T04:35:32.066Z,11.39
2022-12-29T04:36:27.829Z,11.41
2022-12-29T04:37:13.049Z,11.41
2022-12-29T04:38:02.043Z,11.38
2022-12-29T04:38:52.035Z,11.36
2022-12-29T04:39:42.028Z,11.38
2022-12-29T04:40:32.025Z,11.39
2022-12-29T04:41:22.005Z,11.45
2022-12-29T04:42:12.002Z,11.51
2022-12-29T04:43:01.983Z,11.53
2022-12-29T04:43:51.989Z,11.49
2022-12-29T04:44:45.228Z,11.49
2022-12-29T04:45:31.945Z,11.49
2022-12-29T04:46:21.970Z,11.46
2022-12-29T04:47:11.997Z,11.44
2022-12-29T04:48:01.932Z,11.45
2022-12-29T04:48:51.939Z,11.46
2022-12-29T04:49:41.914Z,11.48
2022-12-29T04:50:31.896Z,11.49
2022-12-29T04:51:21.886Z,11.48
2022-12-29T04:52:11.877Z,11.48
2022-12-29T04:53:01.869Z,11.46
2022-12-29T04:53:51.893Z,11.46
2022-12-29T04:54:41.854Z,11.46
2022-12-29T04:55:31.844Z,11.46
2022-12-29T04:56:21.850Z,11.44
2022-12-29T04:57:11.823Z,11.41
2022-12-29T04:58:01.819Z,11.38
2022-12-29T04:58:51.823Z,11.33
2022-12-29T04:59:41.795Z,11.33
2022-12-29T05:00:31.789Z,11.33
2022-12-29T05:01:21.895Z,11.31
2022-12-29T05:02:11.870Z,11.31
2022-12-29T05:03:01.949Z,11.30
2022-12-29T05:03:51.817Z,11.31
2022-12-29T05:04:41.731Z,11.30
2022-12-29T05:05:31.732Z,11.31
2022-12-29T05:06:21.718Z,11.31
2022-12-29T05:07:11.715Z,11.33
2022-12-29T05:08:01.703Z,11.35
2022-12-29T05:08:51.709Z,11.36
2022-12-29T05:09:41.688Z,11.38
2022-12-29T05:10:31.680Z,11.39
2022-12-29T05:11:21.673Z,11.39
2022-12-29T05:12:11.656Z,11.38
2022-12-29T05:13:01.659Z,11.36
2022-12-29T05:13:51.651Z,11.33
2022-12-29T05:14:41.627Z,11.33
2022-12-29T05:15:31.619Z,11.33
2022-12-29T05:16:21.674Z,11.38
2022-12-29T05:17:11.604Z,11.38
2022-12-29T05:18:01.590Z,11.39
2022-12-29T05:18:51.613Z,11.44
2022-12-29T05:19:41.571Z,11.45
2022-12-29T05:20:31.571Z,11.48
2022-12-29T05:21:21.542Z,11.48
2022-12-29T05:22:11.554Z,11.45
2022-12-29T05:23:01.558Z,11.46
2022-12-29T05:23:51.533Z,11.49
2022-12-29T05:24:41.512Z,11.48
2022-12-29T05:25:31.511Z,11.49
2022-12-29T05:26:21.498Z,11.49
2022-12-29T05:27:11.492Z,11.49
2022-12-29T05:28:01.473Z,11.54
2022-12-29T05:28:51.485Z,11.54
2022-12-29T05:29:41.462Z,11.51
2022-12-29T05:30:31.454Z,11.51
2022-12-29T05:31:21.485Z,11.51
2022-12-29T05:32:11.431Z,11.54
2022-12-29T05:33:01.421Z,11.56
2022-12-29T05:33:51.433Z,11.54
2022-12-29T05:34:41.398Z,11.53
2022-12-29T05:35:31.395Z,11.53
2022-12-29T05:36:21.377Z,11.53
2022-12-29T05:37:11.379Z,11.53
2022-12-29T05:38:01.358Z,11.49
2022-12-29T05:38:51.385Z,11.45
2022-12-29T05:39:41.357Z,11.45
2022-12-29T05:40:31.330Z,11.45
2022-12-29T05:41:21.320Z,11.48
2022-12-29T05:42:11.322Z,11.48
2022-12-29T05:43:01.314Z,11.49
2022-12-29T05:43:51.329Z,11.53
2022-12-29T05:44:41.280Z,11.56
2022-12-29T05:45:31.284Z,11.56
2022-12-29T05:46:21.328Z,11.54
2022-12-29T05:47:11.336Z,11.51
2022-12-29T05:48:01.249Z,11.46
2022-12-29T05:48:51.260Z,11.46
2022-12-29T05:49:41.261Z,11.49
2022-12-29T05:50:31.234Z,11.48
2022-12-29T05:51:21.213Z,11.51
2022-12-29T05:52:11.212Z,11.53
2022-12-29T05:53:01.216Z,11.54
2022-12-29T05:53:51.205Z,11.54
2022-12-29T05:54:41.185Z,11.59
2022-12-29T05:55:31.169Z,11.62
2022-12-29T05:56:21.158Z,11.63
2022-12-29T05:57:11.172Z,11.66
2022-12-29T05:58:01.127Z,11.70
2022-12-29T05:58:51.214Z,11.70
2022-12-29T05:59:41.120Z,11.72
2022-12-29T06:00:31.123Z,11.72
2022-12-29T06:01:21.172Z,11.69
2022-12-29T06:02:11.270Z,11.64
2022-12-29T06:03:01.320Z,11.62
2022-12-29T06:03:51.324Z,11.63
2022-12-29T06:04:41.078Z,11.66
2022-12-29T06:05:31.752Z,11.66
2022-12-29T06:06:21.049Z,11.66
2022-12-29T06:07:11.038Z,11.64
2022-12-29T06:08:01.027Z,11.64
2022-12-29T06:08:51.020Z,11.64
2022-12-29T06:09:41.018Z,11.63
2022-12-29T06:10:31.005Z,11.66
2022-12-29T06:11:20.987Z,11.69
2022-12-29T06:12:10.987Z,11.69
2022-12-29T06:13:00.980Z,11.67
2022-12-29T06:13:50.967Z,11.67
2022-12-29T06:14:40.967Z,11.62
2022-12-29T06:15:30.947Z,11.57
2022-12-29T06:16:20.970Z,11.54
2022-12-29T06:17:10.931Z,11.51
2022-12-29T06:18:00.913Z,11.49
2022-12-29T06:18:50.909Z,11.48
2022-12-29T06:19:40.926Z,11.46
2022-12-29T06:20:30.886Z,11.54
2022-12-29T06:21:20.876Z,11.59
2022-12-29T06:22:10.878Z,11.60
2022-12-29T06:23:00.869Z,11.62
2022-12-29T06:23:50.859Z,11.64
2022-12-29T06:24:40.859Z,11.67
2022-12-29T06:25:30.825Z,11.74
2022-12-29T06:26:20.816Z,11.74
2022-12-29T06:27:10.827Z,11.70
2022-12-29T06:28:00.797Z,11.70
2022-12-29T06:28:50.796Z,11.67
2022-12-29T06:29:40.811Z,11.70
2022-12-29T06:30:30.783Z,11.74
2022-12-29T06:31:20.837Z,11.72
2022-12-29T06:32:10.816Z,11.69
2022-12-29T06:33:00.774Z,11.74
2022-12-29T06:33:50.742Z,11.78
2022-12-29T06:34:40.735Z,11.79
2022-12-29T06:35:30.729Z,11.82
2022-12-29T06:36:20.717Z,11.84
2022-12-29T06:37:10.699Z,11.87
2022-12-29T06:38:00.684Z,11.90
2022-12-29T06:38:50.697Z,11.93
2022-12-29T06:39:40.684Z,11.96
2022-12-29T06:40:30.664Z,11.97
2022-12-29T06:41:20.643Z,11.98
2022-12-29T06:42:10.658Z,11.98
2022-12-29T06:43:00.634Z,12.00
2022-12-29T06:43:50.627Z,12.00
2022-12-29T06:44:40.624Z,12.00
2022-12-29T06:45:30.653Z,12.04
2022-12-29T06:46:20.630Z,12.07
2022-12-29T06:47:10.588Z,12.04
2022-12-29T06:48:00.571Z,12.05
2022-12-29T06:48:50.576Z,12.03
2022-12-29T06:49:40.574Z,12.01
2022-12-29T06:50:30.604Z,11.96
2022-12-29T06:51:20.563Z,11.96
2022-12-29T06:52:12.955Z,11.90
2022-12-29T06:53:00.523Z,11.88
2022-12-29T06:53:50.522Z,11.90
2022-12-29T06:54:40.514Z,11.90
2022-12-29T06:55:30.506Z,11.90
2022-12-29T06:56:20.482Z,11.90
2022-12-29T06:57:10.477Z,11.84
2022-12-29T06:58:00.464Z,11.81
2022-12-29T06:58:50.464Z,11.78
2022-12-29T06:59:40.454Z,11.75
2022-12-29T07:00:30.432Z,11.70
2022-12-29T07:01:20.505Z,11.67
2022-12-29T07:02:10.507Z,11.66
2022-12-29T07:03:00.600Z,11.66
2022-12-29T07:03:50.401Z,11.63
2022-12-29T07:04:40.403Z,11.63
2022-12-29T07:05:30.383Z,11.69
2022-12-29T07:06:20.370Z,11.70
2022-12-29T07:07:10.371Z,11.66
2022-12-29T07:08:00.355Z,11.66
2022-12-29T07:08:50.355Z,11.67
2022-12-29T07:09:40.355Z,11.72
2022-12-29T07:10:30.403Z,11.72
2022-12-29T07:11:20.310Z,11.75
2022-12-29T07:12:10.303Z,11.77
2022-12-29T07:13:00.293Z,11.79
2022-12-29T07:13:50.291Z,11.82
2022-12-29T07:14:43.307Z,11.87
2022-12-29T07:15:30.282Z,11.84
2022-12-29T07:16:20.288Z,11.82
2022-12-29T07:17:10.315Z,11.82
2022-12-29T07:18:00.249Z,11.87
2022-12-29T07:18:50.241Z,11.94
2022-12-29T07:19:40.239Z,11.97
2022-12-29T07:20:30.221Z,11.98
2022-12-29T07:21:20.207Z,12.00
2022-12-29T07:22:10.207Z,12.00
2022-12-29T07:23:00.187Z,12.00
2022-12-29T07:23:50.180Z,12.04
2022-12-29T07:24:40.179Z,12.03
2022-12-29T07:25:30.159Z,12.00
2022-12-29T07:26:20.150Z,11.98
2022-12-29T07:27:10.146Z,12.00
2022-12-29T07:28:00.136Z,12.07
2022-12-29T07:28:50.125Z,12.13
2022-12-29T07:29:40.129Z,12.16
2022-12-29T07:30:30.100Z,12.22
2022-12-29T07:31:20.238Z,12.22
2022-12-29T07:32:10.162Z,12.23
2022-12-29T07:33:00.071Z,12.29
2022-12-29T07:33:50.080Z,12.30
2022-12-29T07:34:40.068Z,12.30
2022-12-29T07:35:30.060Z,12.30
2022-12-29T07:36:20.029Z,12.25
2022-12-29T07:37:10.033Z,12.25
2022-12-29T07:38:00.037Z,12.22
2022-12-29T07:38:50.009Z,12.26
2022-12-29T07:39:40.008Z,12.29
2022-12-29T07:40:36.984Z,12.31
2022-12-29T07:41:19.973Z,12.31
2022-12-29T07:42:09.975Z,12.31
2022-12-29T07:42:59.953Z,12.33
2022-12-29T07:43:49.954Z,12.29
2022-12-29T07:44:39.953Z,12.30
2022-12-29T07:45:29.933Z,12.31
2022-12-29T07:46:55.030Z,12.33
2022-12-29T07:47:10.944Z,12.31
2022-12-29T07:47:59.936Z,12.30
2022-12-29T07:48:49.894Z,12.30
2022-12-29T07:49:39.902Z,12.33
2022-12-29T07:50:29.885Z,12.37
2022-12-29T07:51:19.861Z,12.40
2022-12-29T07:52:09.866Z,12.41
2022-12-29T07:52:59.851Z,12.41
2022-12-29T07:53:49.842Z,12.41
2022-12-29T07:54:39.866Z,12.41
2022-12-29T07:55:29.827Z,12.43
2022-12-29T07:56:19.811Z,12.48
2022-12-29T07:57:09.801Z,12.49
2022-12-29T07:57:59.792Z,12.49
2022-12-29T07:58:49.783Z,12.48
2022-12-29T07:59:39.788Z,12.52
2022-12-29T08:00:29.767Z,12.52
2022-12-29T08:01:19.863Z,12.51
2022-12-29T08:02:09.882Z,12.48
2022-12-29T08:02:59.731Z,12.54
2022-12-29T08:03:55.395Z,12.54
2022-12-29T08:04:40.741Z,12.52
2022-12-29T08:05:29.700Z,12.52
2022-12-29T08:06:19.694Z,12.54
2022-12-29T08:07:09.689Z,12.54
2022-12-29T08:07:59.668Z,12.59
2022-12-29T08:08:49.692Z,12.58
2022-12-29T08:09:39.667Z,12.46
2022-12-29T08:10:29.653Z,12.48
2022-12-29T08:11:19.638Z,12.49
2022-12-29T08:12:09.635Z,12.54
2022-12-29T08:12:59.628Z,12.55
2022-12-29T08:13:49.618Z,12.59
2022-12-29T08:14:39.626Z,12.63
2022-12-29T08:15:32.522Z,12.66
2022-12-29T08:16:19.646Z,12.63
2022-12-29T08:17:09.584Z,12.63
2022-12-29T08:17:59.575Z,12.63
2022-12-29T08:18:49.557Z,12.66
2022-12-29T08:19:39.598Z,12.69
2022-12-29T08:20:29.541Z,12.66
2022-12-29T08:21:19.517Z,12.63
2022-12-29T08:22:09.547Z,12.61
2022-12-29T08:22:59.508Z,12.61
2022-12-29T08:23:49.512Z,12.59
2022-12-29T08:24:39.497Z,12.55
2022-12-29T08:25:29.481Z,12.59
2022-12-29T08:26:19.476Z,12.63
2022-12-29T08:27:18.176Z,12.66
2022-12-29T08:28:00.447Z,12.67
2022-12-29T08:28:49.627Z,12.70
2022-12-29T08:29:39.448Z,12.70
2022-12-29T08:30:29.426Z,12.63
2022-12-29T08:31:19.471Z,12.62
2022-12-29T08:32:09.407Z,12.69
2022-12-29T08:32:59.401Z,12.71
2022-12-29T08:33:49.391Z,12.73
2022-12-29T08:34:39.391Z,12.73
2022-12-29T08:35:29.357Z,12.70
2022-12-29T08:36:19.367Z,12.66
2022-12-29T08:37:09.355Z,12.66
2022-12-29T08:37:59.336Z,12.67
2022-12-29T08:38:49.334Z,12.66
2022-12-29T08:39:39.351Z,12.66
2022-12-29T08:40:29.306Z,12.61
2022-12-29T08:41:19.311Z,12.59
2022-12-29T08:42:09.294Z,12.56
2022-12-29T08:42:59.286Z,12.56
2022-12-29T08:43:49.279Z,12.62
2022-12-29T08:44:39.289Z,12.66
2022-12-29T08:45:29.249Z,12.66
2022-12-29T08:46:19.255Z,12.62
2022-12-29T08:47:09.234Z,12.59
2022-12-29T08:47:59.228Z,12.58
2022-12-29T08:48:49.227Z,12.54
2022-12-29T08:49:39.281Z,12.56
2022-12-29T08:50:29.200Z,12.54
2022-12-29T08:51:24.529Z,12.55
2022-12-29T08:52:10.175Z,12.55
2022-12-29T08:52:59.171Z,12.54
2022-12-29T08:53:49.159Z,12.51
2022-12-29T08:54:39.174Z,12.52
2022-12-29T08:55:29.135Z,12.52
2022-12-29T08:56:19.127Z,12.55
2022-12-29T08:57:09.126Z,12.59
2022-12-29T08:57:59.119Z,12.63
2022-12-29T08:58:49.101Z,12.66
2022-12-29T08:59:39.104Z,12.62
2022-12-29T09:00:29.105Z,12.61
2022-12-29T09:01:19.158Z,12.61
2022-12-29T09:02:09.165Z,12.63
2022-12-29T09:02:59.226Z,12.62
2022-12-29T09:04:15.066Z,12.63
2022-12-29T09:04:40.196Z,12.62
2022-12-29T09:05:29.057Z,12.63
2022-12-29T09:06:19.015Z,12.61
2022-12-29T09:07:09.012Z,12.61
2022-12-29T09:07:58.994Z,12.58
2022-12-29T09:08:48.985Z,12.51
2022-12-29T09:09:38.997Z,12.52
2022-12-29T09:10:28.955Z,12.56
2022-12-29T09:11:18.960Z,12.56
2022-12-29T09:12:08.944Z,12.56
2022-12-29T09:12:58.950Z,12.58
2022-12-29T09:13:48.931Z,12.63
2022-12-29T09:14:38.976Z,12.66
2022-12-29T09:15:28.908Z,12.61
2022-12-29T09:16:18.957Z,12.62
2022-12-29T09:17:08.893Z,12.61
2022-12-29T09:17:58.881Z,12.59
2022-12-29T09:18:48.862Z,12.61
2022-12-29T09:19:38.890Z,12.63
2022-12-29T09:20:28.851Z,12.63
2022-12-29T09:21:18.845Z,12.63
2022-12-29T09:22:08.836Z,12.59
2022-12-29T09:22:58.822Z,12.58
2022-12-29T09:23:48.819Z,12.56
2022-12-29T09:24:38.822Z,12.56
2022-12-29T09:25:28.795Z,12.59
2022-12-29T09:26:18.793Z,12.62
2022-12-29T09:27:08.773Z,12.63
2022-12-29T09:27:58.765Z,12.67
2022-12-29T09:28:48.755Z,12.66
2022-12-29T09:29:38.761Z,12.62
2022-12-29T09:30:28.733Z,12.59
2022-12-29T09:31:18.770Z,12.54
2022-12-29T09:32:11.616Z,12.54
2022-12-29T09:32:59.709Z,12.52
2022-12-29T09:33:48.698Z,12.46
2022-12-29T09:34:38.709Z,12.44
2022-12-29T09:35:28.680Z,12.41
2022-12-29T09:36:18.682Z,12.38
2022-12-29T09:37:08.671Z,12.37
2022-12-29T09:37:58.679Z,12.41
2022-12-29T09:38:48.648Z,12.44
2022-12-29T09:39:38.651Z,12.49
2022-12-29T09:40:28.622Z,12.51
2022-12-29T09:41:18.616Z,12.49
2022-12-29T09:42:08.602Z,12.52
2022-12-29T09:42:58.599Z,12.55
2022-12-29T09:43:48.585Z,12.55
2022-12-29T09:44:38.600Z,12.55
2022-12-29T09:45:28.571Z,12.52
2022-12-29T09:46:18.628Z,12.52
2022-12-29T09:47:08.628Z,12.52
2022-12-29T09:47:58.548Z,12.51
2022-12-29T09:48:48.532Z,12.49
2022-12-29T09:49:38.531Z,12.48
2022-12-29T09:50:28.509Z,12.40
2022-12-29T09:51:18.501Z,12.38
2022-12-29T09:52:08.493Z,12.37
2022-12-29T09:52:58.488Z,12.43
2022-12-29T09:53:48.470Z,12.41
2022-12-29T09:54:38.491Z,12.43
2022-12-29T09:55:28.461Z,12.46
2022-12-29T09:56:18.443Z,12.46
2022-12-29T09:57:08.430Z,12.46
2022-12-29T09:57:58.458Z,12.48
2022-12-29T09:58:48.417Z,12.48
2022-12-29T09:59:38.416Z,12.43
2022-12-29T10:00:28.416Z,12.41
2022-12-29T10:01:25.529Z,12.37
2022-12-29T10:02:15.423Z,12.38
2022-12-29T10:02:58.480Z,12.37
2022-12-29T10:03:48.349Z,12.36
2022-12-29T10:04:38.411Z,12.33
2022-12-29T10:05:28.343Z,12.33
2022-12-29T10:06:18.338Z,12.30
2022-12-29T10:07:59.311Z,12.33
2022-12-29T10:08:48.305Z,12.31
2022-12-29T10:09:38.306Z,12.33
2022-12-29T10:10:28.282Z,12.31
2022-12-29T10:11:18.268Z,12.29
2022-12-29T10:12:08.257Z,12.22
2022-12-29T10:12:58.259Z,12.22
2022-12-29T10:13:48.247Z,12.26
2022-12-29T10:14:38.260Z,12.26
2022-12-29T10:15:28.226Z,12.26
2022-12-29T10:16:18.249Z,12.25
2022-12-29T10:17:08.210Z,12.26
2022-12-29T10:17:58.198Z,12.29
2022-12-29T10:18:48.259Z,12.29
2022-12-29T10:19:38.369Z,12.33
2022-12-29T10:20:28.168Z,12.34
2022-12-29T10:21:18.157Z,12.36
2022-12-29T10:22:08.261Z,12.34
2022-12-29T10:22:58.140Z,12.31
2022-12-29T10:23:48.158Z,12.30
2022-12-29T10:24:38.138Z,12.26
2022-12-29T10:25:31.260Z,12.22
2022-12-29T10:26:18.132Z,12.26
2022-12-29T10:27:08.097Z,12.31
2022-12-29T10:27:58.088Z,12.31
2022-12-29T10:28:48.240Z,12.31
2022-12-29T10:29:38.092Z,12.30
2022-12-29T10:30:28.058Z,12.33
2022-12-29T10:31:18.135Z,12.33
2022-12-29T10:32:08.218Z,12.33
2022-12-29T10:32:58.031Z,12.30
2022-12-29T10:33:48.018Z,12.26
2022-12-29T10:34:38.024Z,12.23
2022-12-29T10:35:27.996Z,12.23
2022-12-29T10:36:18.017Z,12.23
2022-12-29T10:37:07.977Z,12.23
2022-12-29T10:37:57.981Z,12.26
2022-12-29T10:38:47.957Z,12.29
2022-12-29T10:39:37.967Z,12.25
2022-12-29T10:40:27.952Z,12.23
2022-12-29T10:41:17.938Z,12.26
2022-12-29T10:42:07.926Z,12.26
2022-12-29T10:42:57.927Z,12.29
2022-12-29T10:43:47.902Z,12.29
2022-12-29T10:44:37.949Z,12.26